Urania, Louisiana
Current Conditions -  °F | °C
As of 6:53 AM on Saturday 01 Nov 2014 (Local Time) from KESF Reporting Station
Clear Clear  
Wind Chill: 39°   Ceiling: Unl
Heat Index: 39°   Visibility: 10mi
Dew Point: 29°   Wind: 0mph
Humidity: 67%   Direction: NA
Pressure: 30.38"   Gusts: NA
Location:  31.86°N, 92.3°W
Report Text: KESF 011153Z AUTO 00000KT 10SM CLR 04/M02 A3038 RMK AO2 SLP286 T00391017 10100 20033 53018
Loading
Personal Weather Stations






























Interactive Weather Map New forecast layout! Learn more

10-Day Weather Forecast

Advertisements
Track Severe Weather on mobile